sensor_id;sensor_type;location;lat;lon;timestamp;temperature;humidity
68977;SHT31;56029;52.568;13.588;2022-10-22T00:00:10;13.20;99.99
68977;SHT31;56029;52.568;13.588;2022-10-22T00:02:56;13.15;99.99
68977;SHT31;56029;52.568;13.588;2022-10-22T00:05:22;13.09;99.99
68977;SHT31;56029;52.568;13.588;2022-10-22T00:07:48;13.04;99.99
68977;SHT31;56029;52.568;13.588;2022-10-22T00:10:14;12.95;99.99
68977;SHT31;56029;52.568;13.588;2022-10-22T00:12:42;12.92;99.99
68977;SHT31;56029;52.568;13.588;2022-10-22T00:15:07;12.88;99.99
68977;SHT31;56029;52.568;13.588;2022-10-22T00:17:33;12.90;99.99
68977;SHT31;56029;52.568;13.588;2022-10-22T00:19:58;12.92;99.99
68977;SHT31;56029;52.568;13.588;2022-10-22T00:22:24;12.99;99.99
68977;SHT31;56029;52.568;13.588;2022-10-22T00:24:49;12.98;99.99
68977;SHT31;56029;52.568;13.588;2022-10-22T00:27:15;12.98;99.99
68977;SHT31;56029;52.568;13.588;2022-10-22T00:29:40;13.01;99.99
68977;SHT31;56029;52.568;13.588;2022-10-22T00:32:06;12.99;99.99
68977;SHT31;56029;52.568;13.588;2022-10-22T00:34:31;12.98;99.99
68977;SHT31;56029;52.568;13.588;2022-10-22T00:36:57;12.98;99.99
68977;SHT31;56029;52.568;13.588;2022-10-22T00:39:24;13.04;99.99
68977;SHT31;56029;52.568;13.588;2022-10-22T00:41:51;13.04;99.99
68977;SHT31;56029;52.568;13.588;2022-10-22T00:47:21;12.95;99.99
68977;SHT31;56029;52.568;13.588;2022-10-22T00:49:48;12.90;99.99
68977;SHT31;56029;52.568;13.588;2022-10-22T00:52:14;12.81;99.99
68977;SHT31;56029;52.568;13.588;2022-10-22T00:54:40;12.77;99.99
68977;SHT31;56029;52.568;13.588;2022-10-22T00:57:06;12.67;99.99
68977;SHT31;56029;52.568;13.588;2022-10-22T00:59:31;12.68;99.99
68977;SHT31;56029;52.568;13.588;2022-10-22T01:01:57;12.64;99.99
68977;SHT31;56029;52.568;13.588;2022-10-22T01:04:23;12.67;99.99
68977;SHT31;56029;52.568;13.588;2022-10-22T01:06:49;12.60;99.99
68977;SHT31;56029;52.568;13.588;2022-10-22T01:09:29;12.60;99.99
68977;SHT31;56029;52.568;13.588;2022-10-22T01:12:09;12.59;99.99
68977;SHT31;56029;52.568;13.588;2022-10-22T01:14:50;12.57;99.99
68977;SHT31;56029;52.568;13.588;2022-10-22T01:17:23;12.59;99.99
68977;SHT31;56029;52.568;13.588;2022-10-22T01:28:06;12.60;99.99
68977;SHT31;56029;52.568;13.588;2022-10-22T01:30:37;12.63;99.99
68977;SHT31;56029;52.568;13.588;2022-10-22T01:33:05;12.65;99.99
68977;SHT31;56029;52.568;13.588;2022-10-22T01:35:36;12.61;99.99
68977;SHT31;56029;52.568;13.588;2022-10-22T01:38:06;12.68;99.99
68977;SHT31;56029;52.568;13.588;2022-10-22T01:40:33;12.70;99.99
68977;SHT31;56029;52.568;13.588;2022-10-22T01:43:05;12.73;99.99
68977;SHT31;56029;52.568;13.588;2022-10-22T01:45:45;12.76;99.99
68977;SHT31;56029;52.568;13.588;2022-10-22T01:51:07;12.83;99.99
68977;SHT31;56029;52.568;13.588;2022-10-22T01:57:02;12.87;99.99
68977;SHT31;56029;52.568;13.588;2022-10-22T01:59:38;12.92;99.99
68977;SHT31;56029;52.568;13.588;2022-10-22T02:02:22;12.92;99.99
68977;SHT31;56029;52.568;13.588;2022-10-22T02:04:53;12.91;99.99
68977;SHT31;56029;52.568;13.588;2022-10-22T02:07:25;12.95;99.99
68977;SHT31;56029;52.568;13.588;2022-10-22T02:09:53;12.92;99.99
68977;SHT31;56029;52.568;13.588;2022-10-22T02:12:21;12.90;99.99
68977;SHT31;56029;52.568;13.588;2022-10-22T02:14:48;12.91;99.99
68977;SHT31;56029;52.568;13.588;2022-10-22T02:17:18;12.85;99.99
68977;SHT31;56029;52.568;13.588;2022-10-22T02:20:09;12.81;99.99
68977;SHT31;56029;52.568;13.588;2022-10-22T02:22:35;12.81;99.99
68977;SHT31;56029;52.568;13.588;2022-10-22T02:25:02;12.84;99.99
68977;SHT31;56029;52.568;13.588;2022-10-22T02:27:32;12.85;99.99
68977;SHT31;56029;52.568;13.588;2022-10-22T02:35:04;12.90;99.99
68977;SHT31;56029;52.568;13.588;2022-10-22T02:37:31;12.90;99.99
68977;SHT31;56029;52.568;13.588;2022-10-22T02:39:56;12.85;99.99
68977;SHT31;56029;52.568;13.588;2022-10-22T02:42:25;12.83;99.99
68977;SHT31;56029;52.568;13.588;2022-10-22T02:44:51;12.85;99.99
68977;SHT31;56029;52.568;13.588;2022-10-22T02:47:17;12.81;99.99
68977;SHT31;56029;52.568;13.588;2022-10-22T02:49:42;12.80;99.99
68977;SHT31;56029;52.568;13.588;2022-10-22T02:52:08;12.80;99.99
68977;SHT31;56029;52.568;13.588;2022-10-22T02:54:33;12.76;99.99
68977;SHT31;56029;52.568;13.588;2022-10-22T02:56:59;12.73;99.99
68977;SHT31;56029;52.568;13.588;2022-10-22T02:59:24;12.71;99.99
68977;SHT31;56029;52.568;13.588;2022-10-22T03:01:49;12.70;99.99
68977;SHT31;56029;52.568;13.588;2022-10-22T03:04:15;12.68;99.99
68977;SHT31;56029;52.568;13.588;2022-10-22T03:06:41;12.67;99.99
68977;SHT31;56029;52.568;13.588;2022-10-22T03:09:08;12.67;99.99
68977;SHT31;56029;52.568;13.588;2022-10-22T03:11:34;12.70;99.99
68977;SHT31;56029;52.568;13.588;2022-10-22T03:13:59;12.67;99.99
68977;SHT31;56029;52.568;13.588;2022-10-22T03:16:25;12.68;99.99
68977;SHT31;56029;52.568;13.588;2022-10-22T03:18:50;12.70;99.99
68977;SHT31;56029;52.568;13.588;2022-10-22T03:21:39;12.71;99.99
68977;SHT31;56029;52.568;13.588;2022-10-22T03:24:12;12.71;99.99
68977;SHT31;56029;52.568;13.588;2022-10-22T03:26:40;12.71;99.99
68977;SHT31;56029;52.568;13.588;2022-10-22T03:29:07;12.70;99.99
68977;SHT31;56029;52.568;13.588;2022-10-22T03:31:33;12.70;99.99
68977;SHT31;56029;52.568;13.588;2022-10-22T03:33:59;12.71;99.99
68977;SHT31;56029;52.568;13.588;2022-10-22T03:36:24;12.71;99.99
68977;SHT31;56029;52.568;13.588;2022-10-22T03:38:50;12.67;99.99
68977;SHT31;56029;52.568;13.588;2022-10-22T03:41:15;12.60;99.99
68977;SHT31;56029;52.568;13.588;2022-10-22T03:43:41;12.59;99.99
68977;SHT31;56029;52.568;13.588;2022-10-22T03:46:07;12.54;99.99
68977;SHT31;56029;52.568;13.588;2022-10-22T03:48:32;12.56;99.99
68977;SHT31;56029;52.568;13.588;2022-10-22T03:50:57;12.44;99.99
68977;SHT31;56029;52.568;13.588;2022-10-22T03:53:23;12.46;99.99
68977;SHT31;56029;52.568;13.588;2022-10-22T03:55:49;12.44;99.99
68977;SHT31;56029;52.568;13.588;2022-10-22T03:58:14;12.41;99.99
68977;SHT31;56029;52.568;13.588;2022-10-22T04:00:39;12.46;99.99
68977;SHT31;56029;52.568;13.588;2022-10-22T04:03:05;12.46;99.99
68977;SHT31;56029;52.568;13.588;2022-10-22T04:05:32;12.49;99.99
68977;SHT31;56029;52.568;13.588;2022-10-22T04:07:58;12.46;99.99
68977;SHT31;56029;52.568;13.588;2022-10-22T04:10:24;12.46;99.99
68977;SHT31;56029;52.568;13.588;2022-10-22T04:12:50;12.43;99.99
68977;SHT31;56029;52.568;13.588;2022-10-22T04:15:16;12.43;99.99
68977;SHT31;56029;52.568;13.588;2022-10-22T04:17:42;12.43;99.99
68977;SHT31;56029;52.568;13.588;2022-10-22T04:20:08;12.44;99.99
68977;SHT31;56029;52.568;13.588;2022-10-22T04:22:34;12.43;99.99
68977;SHT31;56029;52.568;13.588;2022-10-22T04:25:00;12.43;99.99
68977;SHT31;56029;52.568;13.588;2022-10-22T04:27:30;12.40;99.99
68977;SHT31;56029;52.568;13.588;2022-10-22T04:29:56;12.40;99.99
68977;SHT31;56029;52.568;13.588;2022-10-22T04:32:22;12.39;99.99
68977;SHT31;56029;52.568;13.588;2022-10-22T04:34:47;12.37;99.99
68977;SHT31;56029;52.568;13.588;2022-10-22T04:37:13;12.34;99.99
68977;SHT31;56029;52.568;13.588;2022-10-22T04:39:38;12.33;99.99
68977;SHT31;56029;52.568;13.588;2022-10-22T04:42:04;12.34;99.99
68977;SHT31;56029;52.568;13.588;2022-10-22T04:44:30;12.34;99.99
68977;SHT31;56029;52.568;13.588;2022-10-22T04:46:55;12.34;99.99
68977;SHT31;56029;52.568;13.588;2022-10-22T04:49:21;12.34;99.99
68977;SHT31;56029;52.568;13.588;2022-10-22T04:51:46;12.34;99.99
68977;SHT31;56029;52.568;13.588;2022-10-22T04:54:12;12.33;99.99
68977;SHT31;56029;52.568;13.588;2022-10-22T04:56:37;12.32;99.99
68977;SHT31;56029;52.568;13.588;2022-10-22T04:59:05;12.33;99.99
68977;SHT31;56029;52.568;13.588;2022-10-22T05:01:36;12.36;99.99
68977;SHT31;56029;52.568;13.588;2022-10-22T05:04:03;12.39;99.99
68977;SHT31;56029;52.568;13.588;2022-10-22T05:06:31;12.37;99.99
68977;SHT31;56029;52.568;13.588;2022-10-22T05:08:59;12.36;99.99
68977;SHT31;56029;52.568;13.588;2022-10-22T05:11:28;12.30;99.99
68977;SHT31;56029;52.568;13.588;2022-10-22T05:13:55;12.30;99.99
68977;SHT31;56029;52.568;13.588;2022-10-22T05:16:21;12.32;99.99
68977;SHT31;56029;52.568;13.588;2022-10-22T05:18:47;12.30;99.99
68977;SHT31;56029;52.568;13.588;2022-10-22T05:21:16;12.30;99.99
68977;SHT31;56029;52.568;13.588;2022-10-22T05:23:43;12.33;99.99
68977;SHT31;56029;52.568;13.588;2022-10-22T05:26:11;12.33;99.99
68977;SHT31;56029;52.568;13.588;2022-10-22T05:28:37;12.28;99.99
68977;SHT31;56029;52.568;13.588;2022-10-22T05:31:04;12.29;99.99
68977;SHT31;56029;52.568;13.588;2022-10-22T05:33:30;12.19;99.99
68977;SHT31;56029;52.568;13.588;2022-10-22T05:35:57;12.16;99.99
68977;SHT31;56029;52.568;13.588;2022-10-22T05:38:23;12.13;99.99
68977;SHT31;56029;52.568;13.588;2022-10-22T05:41:09;12.08;99.99
68977;SHT31;56029;52.568;13.588;2022-10-22T05:43:35;12.08;99.99
68977;SHT31;56029;52.568;13.588;2022-10-22T05:46:09;12.06;99.99
68977;SHT31;56029;52.568;13.588;2022-10-22T05:48:35;12.06;99.99
68977;SHT31;56029;52.568;13.588;2022-10-22T05:51:02;12.06;99.99
68977;SHT31;56029;52.568;13.588;2022-10-22T05:53:33;12.13;99.99
68977;SHT31;56029;52.568;13.588;2022-10-22T05:56:01;12.13;99.99
68977;SHT31;56029;52.568;13.588;2022-10-22T05:58:27;12.16;99.99
68977;SHT31;56029;52.568;13.588;2022-10-22T06:00:52;12.13;99.99
68977;SHT31;56029;52.568;13.588;2022-10-22T06:03:18;12.13;99.99
68977;SHT31;56029;52.568;13.588;2022-10-22T06:05:43;12.15;99.99
68977;SHT31;56029;52.568;13.588;2022-10-22T06:08:10;12.13;99.99
68977;SHT31;56029;52.568;13.588;2022-10-22T06:10:40;12.13;99.99
68977;SHT31;56029;52.568;13.588;2022-10-22T06:13:07;12.16;99.99
68977;SHT31;56029;52.568;13.588;2022-10-22T06:15:32;12.12;99.99
68977;SHT31;56029;52.568;13.588;2022-10-22T06:17:58;12.12;99.99
68977;SHT31;56029;52.568;13.588;2022-10-22T06:20:23;12.15;99.99
68977;SHT31;56029;52.568;13.588;2022-10-22T06:22:49;12.16;99.99
68977;SHT31;56029;52.568;13.588;2022-10-22T06:25:15;12.26;99.99
68977;SHT31;56029;52.568;13.588;2022-10-22T06:27:40;12.26;99.99
68977;SHT31;56029;52.568;13.588;2022-10-22T06:30:06;12.30;99.99
68977;SHT31;56029;52.568;13.588;2022-10-22T06:32:32;12.34;99.99
68977;SHT31;56029;52.568;13.588;2022-10-22T06:34:58;12.39;99.99
68977;SHT31;56029;52.568;13.588;2022-10-22T06:37:23;12.43;99.99
68977;SHT31;56029;52.568;13.588;2022-10-22T06:39:49;12.44;99.99
68977;SHT31;56029;52.568;13.588;2022-10-22T06:42:14;12.49;99.99
68977;SHT31;56029;52.568;13.588;2022-10-22T06:44:40;12.51;99.99
68977;SHT31;56029;52.568;13.588;2022-10-22T06:47:05;12.56;99.99
68977;SHT31;56029;52.568;13.588;2022-10-22T06:49:31;12.61;99.99
68977;SHT31;56029;52.568;13.588;2022-10-22T06:51:56;12.61;99.99
68977;SHT31;56029;52.568;13.588;2022-10-22T06:54:22;12.63;99.99
68977;SHT31;56029;52.568;13.588;2022-10-22T06:56:47;12.67;99.99
68977;SHT31;56029;52.568;13.588;2022-10-22T06:59:13;12.71;99.99
68977;SHT31;56029;52.568;13.588;2022-10-22T07:01:39;12.73;99.99
68977;SHT31;56029;52.568;13.588;2022-10-22T07:04:05;12.78;99.99
68977;SHT31;56029;52.568;13.588;2022-10-22T07:06:31;12.77;99.99
68977;SHT31;56029;52.568;13.588;2022-10-22T07:08:58;12.80;99.99
68977;SHT31;56029;52.568;13.588;2022-10-22T07:11:35;12.84;99.99
68977;SHT31;56029;52.568;13.588;2022-10-22T07:14:03;12.88;99.99
68977;SHT31;56029;52.568;13.588;2022-10-22T07:16:28;12.91;99.99
68977;SHT31;56029;52.568;13.588;2022-10-22T07:18:54;12.97;99.99
68977;SHT31;56029;52.568;13.588;2022-10-22T07:21:19;13.01;99.99
68977;SHT31;56029;52.568;13.588;2022-10-22T07:23:46;13.05;99.99
68977;SHT31;56029;52.568;13.588;2022-10-22T07:26:13;13.08;99.99
68977;SHT31;56029;52.568;13.588;2022-10-22T07:28:40;13.09;99.99
68977;SHT31;56029;52.568;13.588;2022-10-22T07:31:07;13.14;99.99
68977;SHT31;56029;52.568;13.588;2022-10-22T07:33:34;13.16;99.99
68977;SHT31;56029;52.568;13.588;2022-10-22T07:36:02;13.18;99.99
68977;SHT31;56029;52.568;13.588;2022-10-22T07:38:28;13.26;99.99
68977;SHT31;56029;52.568;13.588;2022-10-22T07:40:53;13.32;99.99
68977;SHT31;56029;52.568;13.588;2022-10-22T07:43:19;13.34;99.99
68977;SHT31;56029;52.568;13.588;2022-10-22T07:45:45;13.42;99.99
68977;SHT31;56029;52.568;13.588;2022-10-22T07:48:11;13.46;99.99
68977;SHT31;56029;52.568;13.588;2022-10-22T07:50:36;13.52;99.99
68977;SHT31;56029;52.568;13.588;2022-10-22T07:53:02;13.57;99.99
68977;SHT31;56029;52.568;13.588;2022-10-22T07:55:27;13.63;99.99
68977;SHT31;56029;52.568;13.588;2022-10-22T07:57:53;13.69;99.99
68977;SHT31;56029;52.568;13.588;2022-10-22T08:00:19;13.70;99.99
68977;SHT31;56029;52.568;13.588;2022-10-22T08:02:45;13.77;99.99
68977;SHT31;56029;52.568;13.588;2022-10-22T08:05:11;13.78;99.99
68977;SHT31;56029;52.568;13.588;2022-10-22T08:07:38;13.87;99.99
68977;SHT31;56029;52.568;13.588;2022-10-22T08:10:05;13.93;99.99
68977;SHT31;56029;52.568;13.588;2022-10-22T08:12:30;13.96;99.99
68977;SHT31;56029;52.568;13.588;2022-10-22T08:14:56;13.98;99.99
68977;SHT31;56029;52.568;13.588;2022-10-22T08:17:22;14.03;99.99
68977;SHT31;56029;52.568;13.588;2022-10-22T08:19:47;14.06;99.99
68977;SHT31;56029;52.568;13.588;2022-10-22T08:22:13;14.08;99.99
68977;SHT31;56029;52.568;13.588;2022-10-22T08:24:38;14.07;99.99
68977;SHT31;56029;52.568;13.588;2022-10-22T08:27:04;14.08;99.99
68977;SHT31;56029;52.568;13.588;2022-10-22T08:29:30;14.11;99.99
68977;SHT31;56029;52.568;13.588;2022-10-22T08:31:55;14.10;99.99
68977;SHT31;56029;52.568;13.588;2022-10-22T08:34:21;14.11;99.99
68977;SHT31;56029;52.568;13.588;2022-10-22T08:36:47;14.15;99.99
68977;SHT31;56029;52.568;13.588;2022-10-22T08:39:12;14.18;99.99
68977;SHT31;56029;52.568;13.588;2022-10-22T08:44:42;14.22;99.99
68977;SHT31;56029;52.568;13.588;2022-10-22T08:47:16;14.28;99.99
68977;SHT31;56029;52.568;13.588;2022-10-22T08:49:45;14.25;99.99
68977;SHT31;56029;52.568;13.588;2022-10-22T08:52:14;14.31;99.99
68977;SHT31;56029;52.568;13.588;2022-10-22T08:54:53;14.34;99.99
68977;SHT31;56029;52.568;13.588;2022-10-22T08:57:30;14.36;99.99
68977;SHT31;56029;52.568;13.588;2022-10-22T09:03:30;14.31;99.99
68977;SHT31;56029;52.568;13.588;2022-10-22T09:06:09;14.31;99.99
68977;SHT31;56029;52.568;13.588;2022-10-22T09:08:36;14.35;99.99
68977;SHT31;56029;52.568;13.588;2022-10-22T09:11:13;14.39;99.99
68977;SHT31;56029;52.568;13.588;2022-10-22T09:13:41;14.48;99.99
68977;SHT31;56029;52.568;13.588;2022-10-22T09:19:02;14.59;99.99
68977;SHT31;56029;52.568;13.588;2022-10-22T09:21:40;14.63;99.99
68977;SHT31;56029;52.568;13.588;2022-10-22T09:24:12;14.69;99.99
68977;SHT31;56029;52.568;13.588;2022-10-22T09:26:41;14.76;99.99
68977;SHT31;56029;52.568;13.588;2022-10-22T09:29:14;14.82;99.76
68977;SHT31;56029;52.568;13.588;2022-10-22T09:31:40;14.90;99.76
68977;SHT31;56029;52.568;13.588;2022-10-22T09:34:06;14.92;99.32
68977;SHT31;56029;52.568;13.588;2022-10-22T09:36:32;15.02;99.46
68977;SHT31;56029;52.568;13.588;2022-10-22T09:38:59;14.93;98.79
68977;SHT31;56029;52.568;13.588;2022-10-22T09:41:27;15.07;98.97
68977;SHT31;56029;52.568;13.588;2022-10-22T09:43:54;15.13;98.66
68977;SHT31;56029;52.568;13.588;2022-10-22T09:46:25;15.23;98.41
68977;SHT31;56029;52.568;13.588;2022-10-22T09:49:01;15.28;98.20
68977;SHT31;56029;52.568;13.588;2022-10-22T09:51:40;15.42;98.31
68977;SHT31;56029;52.568;13.588;2022-10-22T09:54:23;15.42;97.96
68977;SHT31;56029;52.568;13.588;2022-10-22T09:56:56;15.50;97.68
68977;SHT31;56029;52.568;13.588;2022-10-22T09:59:37;15.63;97.81
68977;SHT31;56029;52.568;13.588;2022-10-22T10:02:22;15.82;96.95
68977;SHT31;56029;52.568;13.588;2022-10-22T10:04:50;15.85;96.41
68977;SHT31;56029;52.568;13.588;2022-10-22T10:07:20;15.92;95.99
68977;SHT31;56029;52.568;13.588;2022-10-22T10:09:47;15.99;96.25
68977;SHT31;56029;52.568;13.588;2022-10-22T10:17:35;15.93;95.58
68977;SHT31;56029;52.568;13.588;2022-10-22T10:20:32;15.91;96.37
68977;SHT31;56029;52.568;13.588;2022-10-22T10:23:09;15.88;96.26
68977;SHT31;56029;52.568;13.588;2022-10-22T10:26:03;15.91;96.48
68977;SHT31;56029;52.568;13.588;2022-10-22T10:31:37;15.82;96.54
68977;SHT31;56029;52.568;13.588;2022-10-22T10:39:55;15.78;96.72
68977;SHT31;56029;52.568;13.588;2022-10-22T10:42:32;15.79;96.87
68977;SHT31;56029;52.568;13.588;2022-10-22T10:50:52;15.88;96.08
68977;SHT31;56029;52.568;13.588;2022-10-22T10:53:39;15.89;96.81
68977;SHT31;56029;52.568;13.588;2022-10-22T11:01:56;15.91;96.74
68977;SHT31;56029;52.568;13.588;2022-10-22T11:07:12;15.88;96.44
68977;SHT31;56029;52.568;13.588;2022-10-22T11:09:43;15.89;96.32
68977;SHT31;56029;52.568;13.588;2022-10-22T11:12:15;16.08;95.91
68977;SHT31;56029;52.568;13.588;2022-10-22T11:14:58;16.14;95.62
68977;SHT31;56029;52.568;13.588;2022-10-22T11:17:33;16.19;95.37
68977;SHT31;56029;52.568;13.588;2022-10-22T11:20:23;16.33;94.53
68977;SHT31;56029;52.568;13.588;2022-10-22T11:22:57;16.34;94.92
68977;SHT31;56029;52.568;13.588;2022-10-22T11:25:27;16.31;94.97
68977;SHT31;56029;52.568;13.588;2022-10-22T11:28:33;16.41;94.58
68977;SHT31;56029;52.568;13.588;2022-10-22T11:31:11;16.27;95.07
68977;SHT31;56029;52.568;13.588;2022-10-22T11:33:47;16.24;94.84
68977;SHT31;56029;52.568;13.588;2022-10-22T11:36:18;16.31;94.87
68977;SHT31;56029;52.568;13.588;2022-10-22T11:38:45;16.36;95.38
68977;SHT31;56029;52.568;13.588;2022-10-22T11:41:13;16.50;95.21
68977;SHT31;56029;52.568;13.588;2022-10-22T11:44:20;16.64;94.74
68977;SHT31;56029;52.568;13.588;2022-10-22T11:46:56;16.75;94.04
68977;SHT31;56029;52.568;13.588;2022-10-22T11:49:25;16.88;93.14
68977;SHT31;56029;52.568;13.588;2022-10-22T11:52:05;16.95;93.04
68977;SHT31;56029;52.568;13.588;2022-10-22T11:54:38;16.92;93.17
68977;SHT31;56029;52.568;13.588;2022-10-22T11:59:44;17.11;92.44
68977;SHT31;56029;52.568;13.588;2022-10-22T12:02:29;17.14;92.91
68977;SHT31;56029;52.568;13.588;2022-10-22T12:05:16;17.14;91.80
68977;SHT31;56029;52.568;13.588;2022-10-22T12:08:03;16.92;91.89
68977;SHT31;56029;52.568;13.588;2022-10-22T12:10:56;16.74;92.91
68977;SHT31;56029;52.568;13.588;2022-10-22T12:13:26;16.85;93.01
68977;SHT31;56029;52.568;13.588;2022-10-22T12:15:54;17.07;92.91
68977;SHT31;56029;52.568;13.588;2022-10-22T12:18:32;17.12;92.20
68977;SHT31;56029;52.568;13.588;2022-10-22T12:20:58;17.12;91.62
68977;SHT31;56029;52.568;13.588;2022-10-22T12:23:29;17.26;90.96
68977;SHT31;56029;52.568;13.588;2022-10-22T12:25:54;17.36;90.91
68977;SHT31;56029;52.568;13.588;2022-10-22T12:28:20;17.36;91.07
68977;SHT31;56029;52.568;13.588;2022-10-22T12:30:46;17.45;90.96
68977;SHT31;56029;52.568;13.588;2022-10-22T12:33:19;17.50;90.31
68977;SHT31;56029;52.568;13.588;2022-10-22T12:35:46;17.42;90.07
68977;SHT31;56029;52.568;13.588;2022-10-22T12:38:19;17.50;90.69
68977;SHT31;56029;52.568;13.588;2022-10-22T12:40:45;17.56;90.24
68977;SHT31;56029;52.568;13.588;2022-10-22T12:43:16;17.56;89.71
68977;SHT31;56029;52.568;13.588;2022-10-22T12:45:44;17.54;89.17
68977;SHT31;56029;52.568;13.588;2022-10-22T12:48:18;17.59;89.64
68977;SHT31;56029;52.568;13.588;2022-10-22T12:50:50;17.63;89.00
68977;SHT31;56029;52.568;13.588;2022-10-22T12:53:24;17.54;89.47
68977;SHT31;56029;52.568;13.588;2022-10-22T12:55:53;17.40;89.25
68977;SHT31;56029;52.568;13.588;2022-10-22T12:58:23;17.39;90.04
68977;SHT31;56029;52.568;13.588;2022-10-22T13:00:53;17.40;90.29
68977;SHT31;56029;52.568;13.588;2022-10-22T13:03:28;17.36;90.35
68977;SHT31;56029;52.568;13.588;2022-10-22T13:05:53;17.29;90.73
68977;SHT31;56029;52.568;13.588;2022-10-22T13:08:22;17.28;89.98
68977;SHT31;56029;52.568;13.588;2022-10-22T13:10:50;17.28;90.59
68977;SHT31;56029;52.568;13.588;2022-10-22T13:13:30;17.26;90.31
68977;SHT31;56029;52.568;13.588;2022-10-22T13:16:12;17.28;90.30
68977;SHT31;56029;52.568;13.588;2022-10-22T13:18:37;17.28;89.65
68977;SHT31;56029;52.568;13.588;2022-10-22T13:21:03;17.29;89.38
68977;SHT31;56029;52.568;13.588;2022-10-22T13:23:32;17.32;89.87
68977;SHT31;56029;52.568;13.588;2022-10-22T13:28:35;17.45;88.97
68977;SHT31;56029;52.568;13.588;2022-10-22T13:31:08;17.59;87.84
68977;SHT31;56029;52.568;13.588;2022-10-22T13:33:38;17.65;87.98
68977;SHT31;56029;52.568;13.588;2022-10-22T13:36:05;17.70;89.52
68977;SHT31;56029;52.568;13.588;2022-10-22T13:38:31;17.70;88.40
68977;SHT31;56029;52.568;13.588;2022-10-22T13:40:57;17.71;87.52
68977;SHT31;56029;52.568;13.588;2022-10-22T13:43:24;17.77;87.32
68977;SHT31;56029;52.568;13.588;2022-10-22T13:45:59;17.78;87.43
68977;SHT31;56029;52.568;13.588;2022-10-22T13:48:27;17.77;86.78
68977;SHT31;56029;52.568;13.588;2022-10-22T13:50:54;17.78;86.93
68977;SHT31;56029;52.568;13.588;2022-10-22T13:53:22;17.83;86.92
68977;SHT31;56029;52.568;13.588;2022-10-22T13:55:48;17.87;86.47
68977;SHT31;56029;52.568;13.588;2022-10-22T13:58:17;17.94;85.43
68977;SHT31;56029;52.568;13.588;2022-10-22T14:00:47;18.00;84.98
68977;SHT31;56029;52.568;13.588;2022-10-22T14:03:19;17.97;85.58
68977;SHT31;56029;52.568;13.588;2022-10-22T14:05:46;18.00;85.80
68977;SHT31;56029;52.568;13.588;2022-10-22T14:08:18;17.97;85.78
68977;SHT31;56029;52.568;13.588;2022-10-22T14:10:44;17.97;85.51
68977;SHT31;56029;52.568;13.588;2022-10-22T14:13:14;17.95;85.85
68977;SHT31;56029;52.568;13.588;2022-10-22T14:15:40;17.90;85.63
68977;SHT31;56029;52.568;13.588;2022-10-22T14:18:07;17.94;84.31
68977;SHT31;56029;52.568;13.588;2022-10-22T14:20:36;17.90;84.97
68977;SHT31;56029;52.568;13.588;2022-10-22T14:23:14;17.90;84.67
68977;SHT31;56029;52.568;13.588;2022-10-22T14:25:43;17.86;84.07
68977;SHT31;56029;52.568;13.588;2022-10-22T14:28:10;17.78;85.08
68977;SHT31;56029;52.568;13.588;2022-10-22T14:30:35;17.78;84.89
68977;SHT31;56029;52.568;13.588;2022-10-22T14:33:01;17.78;84.61
68977;SHT31;56029;52.568;13.588;2022-10-22T14:35:26;17.76;85.48
68977;SHT31;56029;52.568;13.588;2022-10-22T14:37:52;17.80;84.81
68977;SHT31;56029;52.568;13.588;2022-10-22T14:40:19;17.84;84.68
68977;SHT31;56029;52.568;13.588;2022-10-22T14:42:46;17.80;85.34
68977;SHT31;56029;52.568;13.588;2022-10-22T14:45:21;17.78;85.65
68977;SHT31;56029;52.568;13.588;2022-10-22T14:47:48;17.76;86.05
68977;SHT31;56029;52.568;13.588;2022-10-22T14:50:14;17.73;86.24
68977;SHT31;56029;52.568;13.588;2022-10-22T14:52:42;17.67;86.42
68977;SHT31;56029;52.568;13.588;2022-10-22T14:55:12;17.67;86.29
68977;SHT31;56029;52.568;13.588;2022-10-22T14:57:38;17.66;85.98
68977;SHT31;56029;52.568;13.588;2022-10-22T15:00:06;17.60;87.14
68977;SHT31;56029;52.568;13.588;2022-10-22T15:02:32;17.49;87.13
68977;SHT31;56029;52.568;13.588;2022-10-22T15:04:58;17.45;87.32
68977;SHT31;56029;52.568;13.588;2022-10-22T15:07:24;17.42;87.22
68977;SHT31;56029;52.568;13.588;2022-10-22T15:09:49;17.33;87.41
68977;SHT31;56029;52.568;13.588;2022-10-22T15:12:15;17.28;87.34
68977;SHT31;56029;52.568;13.588;2022-10-22T15:14:41;17.20;87.58
68977;SHT31;56029;52.568;13.588;2022-10-22T15:17:06;17.19;87.39
68977;SHT31;56029;52.568;13.588;2022-10-22T15:19:32;17.15;88.02
68977;SHT31;56029;52.568;13.588;2022-10-22T15:21:58;17.09;87.80
68977;SHT31;56029;52.568;13.588;2022-10-22T15:24:23;17.02;87.98
68977;SHT31;56029;52.568;13.588;2022-10-22T15:26:49;16.94;88.42
68977;SHT31;56029;52.568;13.588;2022-10-22T15:29:16;16.88;88.90
68977;SHT31;56029;52.568;13.588;2022-10-22T15:31:47;16.75;89.77
68977;SHT31;56029;52.568;13.588;2022-10-22T15:34:21;16.63;90.16
68977;SHT31;56029;52.568;13.588;2022-10-22T15:36:48;16.54;91.01
68977;SHT31;56029;52.568;13.588;2022-10-22T15:39:14;16.41;91.35
68977;SHT31;56029;52.568;13.588;2022-10-22T15:41:40;16.34;91.27
68977;SHT31;56029;52.568;13.588;2022-10-22T15:44:05;16.31;91.41
68977;SHT31;56029;52.568;13.588;2022-10-22T15:46:32;16.23;91.78
68977;SHT31;56029;52.568;13.588;2022-10-22T15:48:57;16.10;92.41
68977;SHT31;56029;52.568;13.588;2022-10-22T15:51:23;15.96;92.91
68977;SHT31;56029;52.568;13.588;2022-10-22T15:53:50;15.88;92.99
68977;SHT31;56029;52.568;13.588;2022-10-22T15:56:17;15.78;93.38
68977;SHT31;56029;52.568;13.588;2022-10-22T15:58:42;15.71;93.42
68977;SHT31;56029;52.568;13.588;2022-10-22T16:01:10;15.62;93.68
68977;SHT31;56029;52.568;13.588;2022-10-22T16:03:36;15.52;94.03
68977;SHT31;56029;52.568;13.588;2022-10-22T16:06:03;15.45;94.39
68977;SHT31;56029;52.568;13.588;2022-10-22T16:08:29;15.35;94.74
68977;SHT31;56029;52.568;13.588;2022-10-22T16:10:55;15.23;94.94
68977;SHT31;56029;52.568;13.588;2022-10-22T16:13:21;15.14;95.05
68977;SHT31;56029;52.568;13.588;2022-10-22T16:15:49;15.03;95.36
68977;SHT31;56029;52.568;13.588;2022-10-22T16:18:14;14.96;95.72
68977;SHT31;56029;52.568;13.588;2022-10-22T16:20:41;14.84;96.10
68977;SHT31;56029;52.568;13.588;2022-10-22T16:23:06;14.76;96.18
68977;SHT31;56029;52.568;13.588;2022-10-22T16:25:39;14.68;96.47
68977;SHT31;56029;52.568;13.588;2022-10-22T16:28:07;14.56;96.65
68977;SHT31;56029;52.568;13.588;2022-10-22T16:30:33;14.48;96.90